createdAt,value
2022-11-08T00:01:18.398Z,21.50
2022-11-08T00:03:51.525Z,27.17
2022-11-08T00:06:39.913Z,24.70
2022-11-08T00:09:29.654Z,21.50
2022-11-08T00:12:18.487Z,21.60
2022-11-08T00:14:54.832Z,26.10
2022-11-08T00:17:24.741Z,21.55
2022-11-08T00:19:58.511Z,30.27
2022-11-08T00:22:33.385Z,25.95
2022-11-08T00:25:14.242Z,22.75
2022-11-08T00:28:09.394Z,20.02
2022-11-08T00:30:55.868Z,23.42
2022-11-08T00:33:27.551Z,24.45
2022-11-08T00:36:08.005Z,20.63
2022-11-08T00:38:49.013Z,21.73
2022-11-08T00:41:25.686Z,18.75
2022-11-08T00:43:56.397Z,19.40
2022-11-08T00:46:38.842Z,18.17
2022-11-08T00:49:15.549Z,18.85
2022-11-08T00:52:25.767Z,17.27
2022-11-08T00:54:55.623Z,16.30
2022-11-08T00:57:57.994Z,18.25
2022-11-08T01:00:39.301Z,19.40
2022-11-08T01:03:27.998Z,16.13
2022-11-08T01:06:06.771Z,17.75
2022-11-08T01:08:39.144Z,16.60
2022-11-08T01:11:16.391Z,18.30
2022-11-08T01:13:51.105Z,19.95
2022-11-08T01:16:30.436Z,17.17
2022-11-08T01:19:05.124Z,17.95
2022-11-08T01:21:49.870Z,17.85
2022-11-08T01:24:24.540Z,20.27
2022-11-08T01:26:58.588Z,21.02
2022-11-08T01:29:42.020Z,20.83
2022-11-08T01:32:17.157Z,20.42
2022-11-08T01:34:49.979Z,29.45
2022-11-08T01:37:26.545Z,21.45
2022-11-08T01:40:00.456Z,20.95
2022-11-08T01:42:56.544Z,20.65
2022-11-08T01:46:03.625Z,22.80
2022-11-08T01:48:46.376Z,19.23
2022-11-08T01:51:45.432Z,21.80
2022-11-08T01:54:28.964Z,21.98
2022-11-08T01:57:36.385Z,22.33
2022-11-08T02:00:21.013Z,30.90
2022-11-08T02:03:09.695Z,21.70
2022-11-08T02:05:46.249Z,19.30
2022-11-08T02:08:34.980Z,22.33
2022-11-08T02:11:07.649Z,41.75
2022-11-08T02:13:38.806Z,20.23
2022-11-08T02:16:21.751Z,18.73
2022-11-08T02:19:23.133Z,19.75
2022-11-08T02:21:58.487Z,18.65
2022-11-08T02:24:31.097Z,17.20
2022-11-08T02:27:01.006Z,16.48
2022-11-08T02:29:36.827Z,20.52
2022-11-08T02:32:06.857Z,18.77
2022-11-08T02:34:46.679Z,17.35
2022-11-08T02:37:18.762Z,18.60
2022-11-08T02:39:48.005Z,16.58
2022-11-08T02:42:20.175Z,18.90
2022-11-08T02:44:49.217Z,19.05
2022-11-08T02:47:18.188Z,19.85
2022-11-08T02:49:53.773Z,19.35
2022-11-08T02:52:26.239Z,18.38
2022-11-08T02:54:54.533Z,18.50
2022-11-08T02:57:24.200Z,23.05
2022-11-08T03:00:00.917Z,20.27
2022-11-08T03:02:29.698Z,23.02
2022-11-08T03:04:58.008Z,20.10
2022-11-08T03:07:26.703Z,19.10
2022-11-08T03:09:56.971Z,16.20
2022-11-08T03:12:28.223Z,17.60
2022-11-08T03:14:59.260Z,21.05
2022-11-08T03:17:32.254Z,18.08
2022-11-08T03:20:08.262Z,19.17
2022-11-08T03:22:39.075Z,15.77
2022-11-08T03:25:08.609Z,16.02
2022-11-08T03:27:39.233Z,18.02
2022-11-08T03:30:09.700Z,22.25
2022-11-08T03:32:38.977Z,26.55
2022-11-08T03:35:14.966Z,18.92
2022-11-08T03:37:57.135Z,17.77
2022-11-08T03:40:33.399Z,16.20
2022-11-08T03:43:03.439Z,19.17
2022-11-08T03:45:31.947Z,14.75
2022-11-08T03:48:01.355Z,16.13
2022-11-08T03:50:31.330Z,15.73
2022-11-08T03:53:00.628Z,15.50
2022-11-08T03:55:29.833Z,16.83
2022-11-08T03:58:06.766Z,17.02
2022-11-08T04:00:36.588Z,17.52
2022-11-08T04:03:05.653Z,18.45
2022-11-08T04:05:34.568Z,16.85
2022-11-08T04:08:05.666Z,19.50
2022-11-08T04:10:34.351Z,20.05
2022-11-08T04:13:22.221Z,16.83
2022-11-08T04:15:56.082Z,16.75
2022-11-08T04:18:48.693Z,13.27
2022-11-08T04:21:18.994Z,14.65
2022-11-08T04:23:49.812Z,14.07
2022-11-08T04:26:18.234Z,15.95
2022-11-08T04:28:48.938Z,21.00
2022-11-08T04:31:19.274Z,15.68
2022-11-08T04:33:48.907Z,17.98
2022-11-08T04:36:17.765Z,71.72
2022-11-08T04:38:50.680Z,19.38
2022-11-08T04:41:23.910Z,22.38
2022-11-08T04:43:53.828Z,13.57
2022-11-08T04:46:23.642Z,14.90
2022-11-08T04:48:53.866Z,14.23
2022-11-08T04:51:23.621Z,15.73
2022-11-08T04:53:53.230Z,12.98
2022-11-08T04:56:21.845Z,16.33
2022-11-08T04:58:51.997Z,13.60
2022-11-08T05:01:22.814Z,17.05
2022-11-08T05:03:52.035Z,15.77
2022-11-08T05:06:22.192Z,17.15
2022-11-08T05:08:51.624Z,16.42
2022-11-08T05:11:21.981Z,20.73
2022-11-08T05:13:51.500Z,23.38
2022-11-08T05:16:26.942Z,21.98
2022-11-08T05:18:58.046Z,19.05
2022-11-08T05:21:45.356Z,19.38
2022-11-08T05:24:18.753Z,17.77
2022-11-08T05:26:48.619Z,19.92
2022-11-08T05:29:20.375Z,21.15
2022-11-08T05:31:48.782Z,20.27
2022-11-08T05:34:18.043Z,17.35
2022-11-08T05:37:02.497Z,21.45
2022-11-08T05:39:32.367Z,18.73
2022-11-08T05:42:01.318Z,16.80
2022-11-08T05:44:30.323Z,17.98
2022-11-08T05:47:00.606Z,14.70
2022-11-08T05:49:30.940Z,17.67
2022-11-08T05:52:00.631Z,14.98
2022-11-08T05:54:30.285Z,13.40
2022-11-08T05:56:58.533Z,14.88
2022-11-08T05:59:28.005Z,14.98
2022-11-08T06:01:57.618Z,17.67
2022-11-08T06:04:27.394Z,14.60
2022-11-08T06:06:58.037Z,22.95
2022-11-08T06:09:28.795Z,17.98
2022-11-08T06:12:06.100Z,18.70
2022-11-08T06:14:35.202Z,18.85
2022-11-08T06:17:04.766Z,19.35
2022-11-08T06:19:33.387Z,20.15
2022-11-08T06:22:01.996Z,16.40
2022-11-08T06:24:30.822Z,22.70
2022-11-08T06:26:59.851Z,20.65
2022-11-08T06:29:29.716Z,17.15
2022-11-08T06:31:59.467Z,18.00
2022-11-08T06:34:28.129Z,15.32
2022-11-08T06:36:58.828Z,17.67
2022-11-08T06:39:36.923Z,19.85
2022-11-08T06:42:07.457Z,17.75
2022-11-08T06:44:38.951Z,29.75
2022-11-08T06:47:08.984Z,23.13
2022-11-08T06:49:37.925Z,29.83
2022-11-08T06:52:06.267Z,18.40
2022-11-08T06:54:36.910Z,22.42
2022-11-08T06:57:13.737Z,22.38
2022-11-08T06:59:45.306Z,28.55
2022-11-08T07:02:13.979Z,26.42
2022-11-08T07:04:42.594Z,36.00
2022-11-08T07:07:10.854Z,31.75
2022-11-08T07:09:40.887Z,18.70
2022-11-08T07:12:10.031Z,60.38
2022-11-08T07:14:38.681Z,22.65
2022-11-08T07:17:07.335Z,17.02
2022-11-08T07:19:36.605Z,15.45
2022-11-08T07:22:04.949Z,85.93
2022-11-08T07:24:36.470Z,49.15
2022-11-08T07:27:05.437Z,131.07
2022-11-08T07:29:34.129Z,30.52
2022-11-08T07:32:05.502Z,26.88
2022-11-08T07:34:36.343Z,31.15
2022-11-08T07:37:04.810Z,37.17
2022-11-08T07:39:34.962Z,30.67
2022-11-08T07:42:03.380Z,20.05
2022-11-08T07:44:32.462Z,24.20
2022-11-08T07:47:00.845Z,19.50
2022-11-08T07:49:32.018Z,21.63
2022-11-08T07:52:00.210Z,25.33
2022-11-08T07:54:35.155Z,19.90
2022-11-08T08:02:41.345Z,16.02
2022-11-08T08:05:10.008Z,22.92
2022-11-08T08:07:38.131Z,24.40
2022-11-08T08:10:07.760Z,23.73
2022-11-08T08:12:37.844Z,19.13
2022-11-08T08:15:10.195Z,13.88
2022-11-08T08:17:40.226Z,16.67
2022-11-08T08:20:11.026Z,20.98
2022-11-08T08:22:59.106Z,20.45
2022-11-08T08:25:31.777Z,22.75
2022-11-08T08:28:01.890Z,16.95
2022-11-08T08:30:32.801Z,17.38
2022-11-08T08:36:04.038Z,21.52
2022-11-08T08:38:43.132Z,19.02
2022-11-08T08:41:16.196Z,16.77
2022-11-08T08:43:44.652Z,15.35
2022-11-08T08:46:13.623Z,20.85
2022-11-08T08:48:45.844Z,33.20
2022-11-08T08:51:14.633Z,23.13
2022-11-08T08:53:46.277Z,14.30
2022-11-08T08:56:21.842Z,16.60
2022-11-08T09:01:40.590Z,13.98
2022-11-08T09:04:10.349Z,16.35
2022-11-08T09:06:39.588Z,15.55
2022-11-08T09:09:08.335Z,17.48
2022-11-08T09:11:41.040Z,11.30
2022-11-08T09:14:09.315Z,12.27
2022-11-08T09:16:40.079Z,16.42
2022-11-08T09:19:08.282Z,19.23
2022-11-08T09:21:38.196Z,18.05
2022-11-08T09:24:07.154Z,9.13
2022-11-08T09:26:36.866Z,11.70
2022-11-08T09:29:10.457Z,13.32
2022-11-08T09:31:39.789Z,12.05
2022-11-08T09:34:10.388Z,8.90
2022-11-08T09:36:41.174Z,13.63
2022-11-08T09:39:09.495Z,10.55
2022-11-08T09:41:54.556Z,8.57
2022-11-08T09:44:24.075Z,12.52
2022-11-08T09:47:04.457Z,10.75
2022-11-08T09:49:41.307Z,8.10
2022-11-08T09:52:14.291Z,9.18
2022-11-08T09:54:44.966Z,9.35
2022-11-08T09:57:23.081Z,10.23
2022-11-08T09:59:57.774Z,11.30
2022-11-08T10:02:34.935Z,11.52
2022-11-08T10:05:06.267Z,9.88
2022-11-08T10:08:01.611Z,7.55
2022-11-08T10:10:39.422Z,9.88
2022-11-08T10:13:19.912Z,10.18
2022-11-08T10:16:06.921Z,8.57
2022-11-08T10:18:52.178Z,8.90
2022-11-08T10:21:47.743Z,10.48
2022-11-08T10:24:36.349Z,12.98
2022-11-08T10:27:05.426Z,10.65
2022-11-08T10:29:37.318Z,9.07
2022-11-08T10:32:20.055Z,10.70
2022-11-08T10:34:55.931Z,9.95
2022-11-08T10:39:59.817Z,7.78
2022-11-08T10:42:31.590Z,10.82
2022-11-08T10:45:00.263Z,9.02
2022-11-08T10:47:30.350Z,11.63
2022-11-08T10:50:04.050Z,11.38
2022-11-08T10:52:58.923Z,11.25
2022-11-08T10:55:31.562Z,11.60
2022-11-08T10:58:00.217Z,10.70
2022-11-08T11:00:34.398Z,9.90
2022-11-08T11:03:18.455Z,7.55
2022-11-08T11:05:56.730Z,8.57
2022-11-08T11:08:26.107Z,9.88
2022-11-08T11:10:55.394Z,10.50
2022-11-08T11:13:23.928Z,9.27
2022-11-08T11:15:52.996Z,27.20
2022-11-08T11:18:31.844Z,7.68
2022-11-08T11:21:06.921Z,6.90
2022-11-08T11:23:36.850Z,8.90
2022-11-08T11:26:07.228Z,9.77
2022-11-08T11:28:38.306Z,12.00
2022-11-08T11:31:17.161Z,8.82
2022-11-08T11:33:47.003Z,8.23
2022-11-08T11:36:25.895Z,7.30
2022-11-08T11:39:11.386Z,8.48
2022-11-08T11:41:47.721Z,7.90
2022-11-08T11:44:36.064Z,8.52
2022-11-08T11:47:18.573Z,9.15
2022-11-08T11:49:49.838Z,7.50
2022-11-08T11:52:20.819Z,8.50
2022-11-08T11:54:50.221Z,9.13
2022-11-08T11:57:19.853Z,9.20
2022-11-08T12:00:15.388Z,17.92
2022-11-08T12:02:59.402Z,11.40
2022-11-08T12:05:47.431Z,7.45
2022-11-08T12:08:16.358Z,12.23
2022-11-08T12:10:51.024Z,8.75
2022-11-08T12:13:25.866Z,7.15
2022-11-08T12:16:01.082Z,12.27
2022-11-08T12:21:15.999Z,8.00
2022-11-08T12:23:57.174Z,7.90
2022-11-08T12:26:53.269Z,11.77
2022-11-08T12:29:31.423Z,10.23
2022-11-08T12:32:18.164Z,8.70
2022-11-08T12:35:12.974Z,8.95
2022-11-08T12:37:52.772Z,8.25
2022-11-08T12:40:25.764Z,8.80
2022-11-08T12:43:16.348Z,7.60
2022-11-08T12:45:54.779Z,9.30
2022-11-08T12:48:33.743Z,9.95
2022-11-08T12:51:18.467Z,8.88
2022-11-08T12:53:49.167Z,9.52
2022-11-08T12:56:26.455Z,10.68
2022-11-08T12:58:55.793Z,9.07
2022-11-08T13:01:25.407Z,9.82
2022-11-08T13:04:32.524Z,11.35
2022-11-08T13:07:08.915Z,12.20
2022-11-08T13:10:04.398Z,9.27
2022-11-08T13:15:02.664Z,10.93
2022-11-08T13:17:31.616Z,8.88
2022-11-08T13:22:39.346Z,9.40
2022-11-08T13:25:26.248Z,9.25
2022-11-08T13:27:56.461Z,7.75
2022-11-08T13:30:25.867Z,7.38
2022-11-08T13:33:16.406Z,10.85
2022-11-08T13:36:00.741Z,11.40
2022-11-08T13:38:32.794Z,12.77
2022-11-08T13:43:54.677Z,13.68
2022-11-08T13:46:25.817Z,16.23
2022-11-08T13:49:05.997Z,10.48
2022-11-08T13:51:42.497Z,13.68
2022-11-08T13:54:23.384Z,21.20
2022-11-08T13:56:55.748Z,10.35
2022-11-08T13:59:33.667Z,8.77
2022-11-08T14:02:06.491Z,317.08
2022-11-08T14:04:38.950Z,13.48
2022-11-08T14:07:22.106Z,15.50
2022-11-08T14:09:56.424Z,15.85
2022-11-08T14:12:40.621Z,16.83
2022-11-08T14:15:17.292Z,57.17
2022-11-08T14:17:47.003Z,73.07
2022-11-08T14:20:22.008Z,91.00
2022-11-08T14:22:51.632Z,101.03
2022-11-08T14:25:28.112Z,59.03
2022-11-08T14:27:57.264Z,53.30
2022-11-08T14:30:27.735Z,36.95
2022-11-08T14:33:17.265Z,26.08
2022-11-08T14:36:00.266Z,19.17
2022-11-08T14:38:30.535Z,12.32
2022-11-08T14:41:00.984Z,16.50
2022-11-08T14:43:30.205Z,13.05
2022-11-08T14:46:00.255Z,14.25
2022-11-08T14:48:32.160Z,13.73
2022-11-08T14:51:03.265Z,11.25
2022-11-08T14:53:33.104Z,15.23
2022-11-08T14:56:16.771Z,15.82
2022-11-08T14:58:45.598Z,18.27
2022-11-08T15:01:16.452Z,27.98
2022-11-08T15:03:46.450Z,29.73
2022-11-08T15:06:18.870Z,25.50
2022-11-08T15:08:55.191Z,39.03
2022-11-08T15:11:31.042Z,28.45
2022-11-08T15:14:05.331Z,35.90
2022-11-08T15:16:51.455Z,30.95
2022-11-08T15:19:30.306Z,35.37
2022-11-08T15:22:00.306Z,31.83
2022-11-08T15:24:37.051Z,31.83
2022-11-08T15:27:07.823Z,55.90
2022-11-08T15:29:56.608Z,93.22
2022-11-08T15:32:30.505Z,77.68
2022-11-08T15:35:01.469Z,83.45
2022-11-08T15:37:36.760Z,54.40
2022-11-08T15:40:10.848Z,48.50
2022-11-08T15:42:48.568Z,34.78
2022-11-08T15:45:21.991Z,26.33
2022-11-08T15:47:51.887Z,45.10
2022-11-08T15:50:30.414Z,39.80
2022-11-08T15:53:06.344Z,37.75
2022-11-08T15:55:39.634Z,37.28
2022-11-08T15:58:26.566Z,35.42
2022-11-08T16:00:58.507Z,39.17
2022-11-08T16:03:27.552Z,43.28
2022-11-08T16:05:56.512Z,37.30
2022-11-08T16:08:25.844Z,25.98
2022-11-08T16:10:55.886Z,28.90
2022-11-08T16:13:35.819Z,32.80
2022-11-08T16:16:15.052Z,26.17
2022-11-08T16:18:43.663Z,24.17
2022-11-08T16:21:13.305Z,36.10
2022-11-08T16:23:42.394Z,25.88
2022-11-08T16:26:23.200Z,26.60
2022-11-08T16:28:59.785Z,36.72
2022-11-08T16:31:28.263Z,25.45
2022-11-08T16:33:57.502Z,34.25
2022-11-08T16:36:28.296Z,34.78
2022-11-08T16:39:25.336Z,27.80
2022-11-08T16:41:53.850Z,25.90
2022-11-08T16:44:43.643Z,27.02
2022-11-08T16:47:31.914Z,41.40
2022-11-08T16:50:04.122Z,25.08
2022-11-08T16:52:33.322Z,356.95
2022-11-08T16:55:04.395Z,316.92
2022-11-08T17:00:48.640Z,412.95
2022-11-08T17:03:23.949Z,206.65
2022-11-08T17:05:54.163Z,132.10
2022-11-08T17:08:26.489Z,127.50
2022-11-08T17:10:56.277Z,108.45
2022-11-08T17:13:25.005Z,75.53
2022-11-08T17:15:56.181Z,88.32
2022-11-08T17:18:27.798Z,42.42
2022-11-08T17:20:57.053Z,88.32
2022-11-08T17:23:26.492Z,75.70
2022-11-08T17:25:55.753Z,75.95
2022-11-08T17:28:25.256Z,137.30
2022-11-08T17:30:55.801Z,33.83
2022-11-08T17:33:24.974Z,44.85
2022-11-08T17:35:53.519Z,89.68
2022-11-08T17:38:22.188Z,39.08
2022-11-08T17:40:51.496Z,44.53
2022-11-08T17:43:20.918Z,48.13
2022-11-08T17:45:51.371Z,48.08
2022-11-08T17:50:53.846Z,37.70
2022-11-08T17:53:23.061Z,40.53
2022-11-08T17:55:58.123Z,35.33
2022-11-08T17:58:33.571Z,58.25
2022-11-08T18:01:10.226Z,43.97
2022-11-08T18:03:39.483Z,59.17
2022-11-08T18:06:12.541Z,88.00
2022-11-08T18:08:42.607Z,70.10
2022-11-08T18:11:12.054Z,164.93
2022-11-08T18:13:48.514Z,89.75
2022-11-08T18:16:23.216Z,65.93
2022-11-08T18:18:52.454Z,56.10
2022-11-08T18:21:22.124Z,78.40
2022-11-08T18:24:02.410Z,58.80
2022-11-08T18:26:53.758Z,57.33
2022-11-08T18:29:22.411Z,31.20
2022-11-08T18:31:50.830Z,49.00
2022-11-08T18:34:19.922Z,43.38
2022-11-08T18:36:49.727Z,48.70
2022-11-08T18:39:25.318Z,64.90
2022-11-08T18:41:57.649Z,64.70
2022-11-08T18:44:26.330Z,65.18
2022-11-08T18:46:54.618Z,42.95
2022-11-08T18:49:23.738Z,50.25
2022-11-08T18:51:56.983Z,93.32
2022-11-08T18:54:26.842Z,103.97
2022-11-08T18:56:55.167Z,109.85
2022-11-08T18:59:24.942Z,74.15
2022-11-08T19:01:53.539Z,55.13
2022-11-08T19:04:22.539Z,54.97
2022-11-08T19:06:59.826Z,48.40
2022-11-08T19:09:31.668Z,32.38
2022-11-08T19:12:08.262Z,50.35
2022-11-08T19:14:47.585Z,33.38
2022-11-08T19:17:56.730Z,37.33
2022-11-08T19:20:55.591Z,39.28
2022-11-08T19:23:44.234Z,40.88
2022-11-08T19:26:33.465Z,28.13
2022-11-08T19:33:28.610Z,78.63
2022-11-08T19:36:18.777Z,41.97
2022-11-08T19:38:49.785Z,30.25
2022-11-08T19:41:20.289Z,35.13
2022-11-08T19:43:50.862Z,24.92
2022-11-08T19:46:22.808Z,29.27
2022-11-08T19:48:59.001Z,37.75
2022-11-08T19:51:32.580Z,36.13
2022-11-08T19:54:05.989Z,20.67
2022-11-08T19:57:03.100Z,19.75
2022-11-08T19:59:31.740Z,27.33
2022-11-08T20:02:05.151Z,19.38
2022-11-08T20:04:34.813Z,48.40
2022-11-08T20:07:04.245Z,18.50
2022-11-08T20:09:35.933Z,29.10
2022-11-08T20:12:06.031Z,38.15
2022-11-08T20:14:46.516Z,17.52
2022-11-08T20:17:34.245Z,24.23
2022-11-08T20:20:05.841Z,28.27
2022-11-08T20:22:35.542Z,56.03
2022-11-08T20:25:06.442Z,45.40
2022-11-08T20:27:44.308Z,39.58
2022-11-08T20:30:23.344Z,35.75
2022-11-08T20:32:52.390Z,24.45
2022-11-08T20:35:23.468Z,25.35
2022-11-08T20:37:59.654Z,22.73
2022-11-08T20:40:29.480Z,27.38
2022-11-08T20:42:59.921Z,20.67
2022-11-08T20:45:28.956Z,20.42
2022-11-08T20:48:14.939Z,23.33
2022-11-08T20:50:52.256Z,20.75
2022-11-08T20:53:24.177Z,23.67
2022-11-08T20:59:11.956Z,39.63
2022-11-08T21:04:17.149Z,32.00
2022-11-08T21:06:46.363Z,23.30
2022-11-08T21:09:36.555Z,30.38
2022-11-08T21:12:17.269Z,27.05
2022-11-08T21:14:46.607Z,18.73
2022-11-08T21:17:22.231Z,25.55
2022-11-08T21:22:20.430Z,25.17
2022-11-08T21:24:49.307Z,23.88
2022-11-08T21:27:18.900Z,19.55
2022-11-08T21:29:47.185Z,21.05
2022-11-08T21:32:15.885Z,24.00
2022-11-08T21:34:45.750Z,22.50
2022-11-08T21:37:19.465Z,23.33
2022-11-08T21:39:50.294Z,22.38
2022-11-08T21:42:24.070Z,27.88
2022-11-08T21:44:52.941Z,22.13
2022-11-08T21:47:21.463Z,18.08
2022-11-08T21:49:49.896Z,15.85
2022-11-08T21:52:20.684Z,20.15
2022-11-08T21:54:49.737Z,18.70
2022-11-08T21:57:18.794Z,20.80
2022-11-08T21:59:47.108Z,23.27
2022-11-08T22:02:17.707Z,19.80
2022-11-08T22:04:46.053Z,23.45
2022-11-08T22:07:15.743Z,19.70
2022-11-08T22:09:44.499Z,23.90
2022-11-08T22:12:13.482Z,33.67
2022-11-08T22:14:43.113Z,28.20
2022-11-08T22:17:15.788Z,21.80
2022-11-08T22:19:46.045Z,20.67
2022-11-08T22:22:17.098Z,24.67
2022-11-08T22:24:46.233Z,22.27
2022-11-08T22:27:15.687Z,22.17
2022-11-08T22:29:44.642Z,20.10
2022-11-08T22:32:14.487Z,21.15
2022-11-08T22:34:45.120Z,23.23
2022-11-08T22:37:20.682Z,25.27
2022-11-08T22:40:23.693Z,109.35
2022-11-08T22:42:52.396Z,99.38
2022-11-08T22:45:23.925Z,78.55
2022-11-08T22:48:08.118Z,51.15
2022-11-08T22:50:51.155Z,31.95
2022-11-08T22:53:20.213Z,42.50
2022-11-08T22:55:49.905Z,49.63
2022-11-08T22:58:18.220Z,41.42
2022-11-08T23:00:46.804Z,25.10
2022-11-08T23:03:15.003Z,26.10
2022-11-08T23:05:49.239Z,31.75
2022-11-08T23:08:18.192Z,26.55
2022-11-08T23:11:06.141Z,34.97
2022-11-08T23:13:53.069Z,24.20
2022-11-08T23:16:35.239Z,25.90
2022-11-08T23:19:28.304Z,26.27
2022-11-08T23:22:16.084Z,31.63
2022-11-08T23:24:44.552Z,32.55
2022-11-08T23:27:35.754Z,35.83
2022-11-08T23:30:26.005Z,35.97
2022-11-08T23:33:00.007Z,28.15
2022-11-08T23:35:28.662Z,23.40
2022-11-08T23:37:58.658Z,21.02
2022-11-08T23:40:47.249Z,48.58
2022-11-08T23:43:43.587Z,76.45
2022-11-08T23:46:15.952Z,53.13
2022-11-08T23:48:46.244Z,74.35
2022-11-08T23:51:14.739Z,50.03
2022-11-08T23:53:45.039Z,25.23
2022-11-08T23:56:21.817Z,23.25
2022-11-08T23:58:54.903Z,31.58
